METAR Data
IDs: Format: Raw Decoded Include TAF

Data at: 1304 UTC 11 Dec 2018

KLHB 111255Z AUTO 00000KT 10SM CLR M01/M01 A3042 RMK AO2 T10141014
KLHB 111235Z AUTO 00000KT 10SM CLR M01/M01 A3041 RMK AO2 T10131013
KLHB 111215Z AUTO 00000KT 10SM CLR M01/M01 A3041 RMK AO2 T10151015
KLHB 111155Z AUTO 00000KT 10SM CLR M01/M01 A3042 RMK AO2 7//// T10121012 10006 21016
KLHB 111135Z AUTO 00000KT 10SM CLR M01/M01 A3041 RMK AO2 T10151015
KLHB 111115Z AUTO 00000KT 10SM CLR M01/M01 A3041 RMK AO2 T10131013
KLHB 111055Z AUTO 00000KT 10SM CLR M01/M01 A3041 RMK AO2 T10131014
KLHB 111035Z AUTO 00000KT 10SM CLR M01/M01 A3041 RMK AO2 T10131015
KLHB 111015Z AUTO 00000KT 10SM CLR 00/M01 A3040 RMK AO2 T10051006
KLHB 110955Z AUTO 00000KT 10SM CLR M01/M01 A3040 RMK AO2 T10061010
KLHB 110935Z AUTO 00000KT 10SM CLR M01/M01 A3040 RMK AO2 T10061006
KLHB 110915Z AUTO 00000KT 10SM CLR M01/M01 A3040 RMK AO2 T10081008
KLHB 110855Z AUTO 00000KT 10SM CLR M01/M01 A3041 RMK AO2 T10071007
KLHB 110835Z AUTO 00000KT 10SM CLR 00/00 A3040 RMK AO2 T10021002
KLHB 110815Z AUTO 00000KT 10SM CLR 00/00 A3041 RMK AO2 T10041004
KLHB 110755Z AUTO 00000KT 10SM CLR 00/00 A3041 RMK AO2 T10041004
KLHB 110735Z AUTO 00000KT 10SM CLR 00/00 A3042 RMK AO2 T10021002
KLHB 110715Z AUTO 00000KT 10SM CLR 00/00 A3042 RMK AO2 T00000000
KLHB 110655Z AUTO 00000KT 10SM CLR 00/00 A3042 RMK AO2 T00010000
KLHB 110635Z AUTO 00000KT 10SM CLR 00/00 A3041 RMK AO2 T00000000
KLHB 110615Z AUTO 00000KT 10SM CLR 00/00 A3041 RMK AO2 T00010000
KLHB 110555Z AUTO 00000KT 10SM CLR 01/01 A3041 RMK AO2 T00060005 10077 20002
KLHB 110535Z AUTO 00000KT 10SM CLR 01/00 A3041 RMK AO2 T00050003
KLHB 110515Z AUTO 00000KT 10SM CLR 00/00 A3041 RMK AO2 T00040001
KLHB 110455Z AUTO 00000KT 10SM CLR 01/01 A3042 RMK AO2 T00090006
KLHB 110435Z AUTO 00000KT 10SM CLR 01/01 A3042 RMK AO2 T00120006
KLHB 110415Z AUTO 00000KT 10SM CLR 02/01 A3042 RMK AO2 T00170010
KLHB 110355Z AUTO 00000KT 10SM CLR 02/01 A3041 RMK AO2 T00190011
KLHB 110335Z AUTO 00000KT 10SM CLR 02/01 A3041 RMK AO2 T00200012
KLHB 110315Z AUTO 00000KT 10SM CLR 02/01 A3041 RMK AO2 T00160011
KLHB 110255Z AUTO 00000KT 10SM CLR 03/02 A3041 RMK AO2 T00260015
KLHB 110235Z AUTO 00000KT 10SM CLR 03/01 A3041 RMK AO2 T00250013
KLHB 110215Z AUTO 00000KT 10SM CLR 03/01 A3041 RMK AO2 T00320013
KLHB 110155Z AUTO 00000KT 10SM CLR 04/02 A3041 RMK AO2 T00360015
KLHB 110135Z AUTO 00000KT 10SM CLR 04/01 A3041 RMK AO2 T00390014
KLHB 110115Z AUTO 00000KT 10SM CLR 05/02 A3041 RMK AO2 T00490019
KLHB 110055Z AUTO 00000KT 10SM CLR 05/02 A3041 RMK AO2 T00450017
KLHB 110035Z AUTO 00000KT 10SM CLR 06/02 A3040 RMK AO2 T00600022
KLHB 110015Z AUTO 00000KT 10SM CLR 07/03 A3039 RMK AO2 T00700025
KLHB 102355Z AUTO 00000KT 10SM CLR 08/03 A3039 RMK AO2 T00800025 10127 20080
KLHB 102335Z AUTO 00000KT 10SM CLR 08/03 A3039 RMK AO2 T00840030
KLHB 102315Z AUTO 00000KT 10SM CLR 11/01 A3038 RMK AO2 T01070012
KLHB 102255Z AUTO 00000KT 10SM CLR 12/01 A3038 RMK AO2 T01160005
KLHB 102235Z AUTO 00000KT 10SM CLR 12/00 A3038 RMK AO2 T01210000
KLHB 102215Z AUTO 00000KT 10SM CLR 12/00 A3038 RMK AO2 T01240001
KLHB 102155Z AUTO 31003KT 10SM CLR 13/00 A3037 RMK AO2 T01250000
KLHB 102135Z AUTO 30003KT 10SM CLR 13/00 A3038 RMK AO2 T01270000
KLHB 102115Z AUTO 25003KT 10SM CLR 12/00 A3037 RMK AO2 T01220000
KLHB 102055Z AUTO 29004KT 10SM CLR 12/00 A3037 RMK AO2 T01220002
KLHB 102035Z AUTO 32004KT 10SM CLR 12/01 A3037 RMK AO2 T01220005
KLHB 102015Z AUTO 00000KT 10SM CLR 12/00 A3037 RMK AO2 T01200003
KLHB 101955Z AUTO 26004KT 10SM CLR 12/00 A3038 RMK AO2 T01190003
KLHB 101935Z AUTO 28006KT 10SM CLR 12/01 A3039 RMK AO2 T01190006
KLHB 101915Z AUTO 27006KT 10SM CLR 11/00 A3039 RMK AO2 T01120003
KLHB 101855Z AUTO 28005KT 10SM CLR 11/01 A3040 RMK AO2 T01110010
KLHB 101835Z AUTO 27005KT 10SM CLR 11/02 A3041 RMK AO2 T01050015
KLHB 101815Z AUTO 27006KT 10SM CLR 10/02 A3041 RMK AO2 T01000021
KLHB 101755Z AUTO 28003KT 10SM CLR 09/02 A3043 RMK AO2 6//// T00920024
KLHB 101735Z AUTO 28004KT 10SM CLR 09/03 A3044 RMK AO2 T00860025
KLHB 101715Z AUTO 26003KT 10SM CLR 08/03 A3044 RMK AO2 T00800026
KLHB 101655Z AUTO 27003KT 10SM CLR 07/03 A3045 RMK AO2 T00730025
KLHB 101635Z AUTO 29004KT 10SM CLR 07/02 A3045 RMK AO2 T00650022
KLHB 101615Z AUTO 31004KT 10SM CLR 06/02 A3045 RMK AO2 T00560023
KLHB 101555Z AUTO 31004KT 10SM 05/02 A3045 RMK AO2 T00450020
KLHB 101515Z AUTO 31004KT 10SM CLR 03/01 A3044 RMK AO2 T00320012
KLHB 101455Z AUTO 30003KT 10SM CLR 02/01 A3044 RMK AO2 T00240012
KLHB 101435Z AUTO 27003KT 10SM CLR 01/01 A3044 RMK AO2 T00130007
KLHB 101415Z AUTO 00000KT 7SM CLR 00/00 A3043 RMK AO2 T00010001
KLHB 101355Z AUTO 00000KT 7SM CLR M01/M01 A3043 RMK AO2 T10061006
KLHB 101335Z AUTO 00000KT 5SM BR CLR M01/M01 A3042 RMK AO2 T10101010
KLHB 101315Z AUTO 00000KT 7SM CLR M02/M02 A3041 RMK AO2 T10161016
KLHB 101255Z AUTO 00000KT 10SM CLR M01/M01 A3041 RMK AO2 T10071007
KLHB 101235Z AUTO 00000KT 7SM CLR M01/M01 A3040 RMK AO2 T10081008
KLHB 101215Z AUTO 00000KT 7SM CLR 00/00 A3040 RMK AO2 T10041004
KLHB 101155Z AUTO 00000KT 10SM CLR 00/00 A3039 RMK AO2 T10031004 10030 21017
KLHB 101135Z AUTO 00000KT 7SM CLR M01/M01 A3038 RMK AO2 T10121012
KLHB 101115Z AUTO 00000KT 7SM CLR M01/M01 A3038 RMK AO2 T10121012
KLHB 101055Z AUTO 00000KT 7SM CLR 00/00 A3038 RMK AO2 T10041004
KLHB 101035Z AUTO 00000KT 5SM BR CLR 00/00 A3038 RMK AO2 T00000000
KLHB 101015Z AUTO 00000KT 7SM CLR 00/00 A3038 RMK AO2 T10011001
KLHB 100955Z AUTO 00000KT 7SM CLR 00/00 A3038 RMK AO2 T00020002
KLHB 100935Z AUTO 29003KT 10SM CLR 01/01 A3038 RMK AO2 T00090009
KLHB 100915Z AUTO 29003KT 7SM CLR 01/01 A3038 RMK AO2 T00100010
KLHB 100855Z AUTO 30003KT 7SM CLR 01/01 A3038 RMK AO2 T00110011
KLHB 100835Z AUTO 30003KT 7SM CLR 01/01 A3038 RMK AO2 T00130013
KLHB 100815Z AUTO 30003KT 7SM CLR 02/02 A3038 RMK AO2 T00150015
KLHB 100755Z AUTO 31004KT 7SM CLR 02/02 A3038 RMK AO2 T00160016
KLHB 100735Z AUTO 30004KT 7SM CLR 02/02 A3039 RMK AO2 T00180017
KLHB 100715Z AUTO 30004KT 7SM CLR 02/02 A3039 RMK AO2 T00210020
KLHB 100655Z AUTO 29003KT 7SM CLR 02/02 A3039 RMK AO2 T00220022
KLHB 100635Z AUTO 27004KT 7SM CLR 02/02 A3039 RMK AO2 T00210021
KLHB 100615Z AUTO 00000KT 7SM CLR 03/03 A3039 RMK AO2 T00270026
KLHB 100555Z AUTO 00000KT 7SM CLR 03/03 A3039 RMK AO2 T00300027 10075 20026 400800026
KLHB 100535Z AUTO 00000KT 7SM CLR 03/02 A3039 RMK AO2 T00260024
KLHB 100515Z AUTO 00000KT 10SM CLR 03/03 A3039 RMK AO2 T00320029
KLHB 100455Z AUTO 00000KT 10SM CLR 03/03 A3039 RMK AO2 T00340029
KLHB 100435Z AUTO 00000KT 10SM CLR 04/03 A3039 RMK AO2 T00350030
KLHB 100415Z AUTO 00000KT 10SM CLR 04/03 A3039 RMK AO2 T00350030
KLHB 100355Z AUTO 30003KT 10SM CLR 04/03 A3038 RMK AO2 T00400030
KLHB 100335Z AUTO 29003KT 10SM CLR 04/03 A3039 RMK AO2 T00370030
KLHB 100315Z AUTO 28003KT 10SM CLR 04/03 A3038 RMK AO2 T00380030
KLHB 100255Z AUTO 00000KT 10SM CLR 04/03 A3038 RMK AO2 T00390030
KLHB 100235Z AUTO 00000KT 10SM CLR 04/03 A3037 RMK AO2 T00440034
KLHB 100215Z AUTO 00000KT 10SM CLR 04/03 A3037 RMK AO2 T00370028
KLHB 100155Z AUTO 00000KT 10SM CLR 05/03 A3035 RMK AO2 T00500034
KLHB 100135Z AUTO 28003KT 10SM CLR 05/04 A3035 RMK AO2 T00520035
KLHB 100115Z AUTO 29003KT 10SM CLR 06/04 A3034 RMK AO2 T00560037